createdAt,value
2018-08-22T00:02:11.036Z,1.50
2018-08-22T00:04:39.369Z,1.00
2018-08-22T00:07:07.867Z,1.30
2018-08-22T00:09:36.330Z,0.90
2018-08-22T00:12:04.667Z,1.40
2018-08-22T00:14:33.023Z,1.47
2018-08-22T00:17:01.623Z,1.37
2018-08-22T00:19:30.038Z,1.40
2018-08-22T00:21:58.353Z,1.57
2018-08-22T00:24:26.734Z,1.10
2018-08-22T00:26:55.129Z,1.13
2018-08-22T00:29:23.518Z,1.30
2018-08-22T00:31:51.937Z,1.17
2018-08-22T00:34:20.282Z,1.30
2018-08-22T00:36:48.595Z,1.43
2018-08-22T00:39:16.994Z,1.50
2018-08-22T00:41:45.414Z,1.00
2018-08-22T00:44:13.781Z,1.07
2018-08-22T00:46:42.169Z,1.20
2018-08-22T00:49:10.537Z,1.43
2018-08-22T00:51:38.908Z,1.40
2018-08-22T00:54:07.348Z,1.10
2018-08-22T00:56:35.699Z,1.30
2018-08-22T00:59:04.199Z,1.30
2018-08-22T01:01:32.548Z,1.00
2018-08-22T01:04:00.967Z,1.30
2018-08-22T01:06:29.339Z,1.23
2018-08-22T01:08:57.736Z,0.97
2018-08-22T01:11:26.098Z,1.43
2018-08-22T01:13:54.375Z,1.20
2018-08-22T01:16:22.738Z,1.47
2018-08-22T01:18:51.075Z,1.30
2018-08-22T01:21:19.403Z,1.20
2018-08-22T01:23:47.723Z,1.43
2018-08-22T01:26:16.129Z,1.20
2018-08-22T01:28:44.530Z,1.27
2018-08-22T01:31:12.894Z,1.60
2018-08-22T01:33:41.246Z,1.13
2018-08-22T01:36:09.615Z,0.97
2018-08-22T01:38:37.983Z,1.27
2018-08-22T01:41:06.349Z,1.20
2018-08-22T01:43:34.742Z,1.20
2018-08-22T01:46:03.163Z,1.40
2018-08-22T01:48:31.513Z,1.40
2018-08-22T01:50:59.933Z,1.87
2018-08-22T01:53:28.271Z,1.20
2018-08-22T01:55:56.678Z,1.40
2018-08-22T01:58:25.225Z,1.40
2018-08-22T02:00:53.594Z,1.47
2018-08-22T02:03:22.041Z,1.30
2018-08-22T02:05:50.406Z,1.47
2018-08-22T02:08:18.799Z,1.20
2018-08-22T02:10:47.134Z,1.17
2018-08-22T02:13:15.541Z,1.20
2018-08-22T02:15:43.862Z,1.30
2018-08-22T02:18:12.208Z,1.20
2018-08-22T02:20:40.561Z,1.77
2018-08-22T02:23:08.935Z,1.60
2018-08-22T02:25:37.404Z,1.57
2018-08-22T02:28:05.750Z,1.40
2018-08-22T02:30:34.125Z,1.37
2018-08-22T02:33:02.500Z,1.50
2018-08-22T02:35:30.855Z,1.50
2018-08-22T02:37:59.242Z,1.20
2018-08-22T02:40:27.717Z,1.47
2018-08-22T02:42:56.047Z,1.43
2018-08-22T02:45:24.399Z,1.40
2018-08-22T02:47:52.791Z,1.30
2018-08-22T02:50:21.106Z,1.20
2018-08-22T02:52:49.547Z,1.50
2018-08-22T02:55:17.927Z,1.40
2018-08-22T02:57:46.294Z,1.60
2018-08-22T03:00:14.714Z,1.53
2018-08-22T03:02:43.081Z,1.47
2018-08-22T03:05:11.431Z,1.17
2018-08-22T03:07:40.011Z,1.60
2018-08-22T03:10:08.443Z,1.10
2018-08-22T03:12:36.806Z,1.27
2018-08-22T03:15:05.156Z,1.40
2018-08-22T03:17:33.552Z,1.40
2018-08-22T03:20:01.908Z,1.03
2018-08-22T03:22:30.314Z,1.47
2018-08-22T03:24:58.690Z,1.60
2018-08-22T03:27:27.030Z,1.20
2018-08-22T03:29:55.385Z,1.27
2018-08-22T03:32:23.716Z,1.17
2018-08-22T03:34:52.045Z,1.00
2018-08-22T03:37:20.437Z,1.47
2018-08-22T03:39:48.844Z,1.40
2018-08-22T03:42:17.197Z,1.47
2018-08-22T03:44:45.850Z,1.23
2018-08-22T03:47:14.258Z,1.50
2018-08-22T03:49:42.551Z,0.93
2018-08-22T03:52:11.222Z,1.10
2018-08-22T03:54:39.603Z,1.40
2018-08-22T03:57:07.944Z,1.37
2018-08-22T03:59:36.322Z,1.37
2018-08-22T04:02:04.962Z,1.47
2018-08-22T04:04:33.334Z,1.07
2018-08-22T04:07:01.699Z,1.67
2018-08-22T04:09:30.083Z,1.77
2018-08-22T04:11:58.500Z,1.23
2018-08-22T04:14:26.854Z,1.10
2018-08-22T04:16:55.463Z,1.30
2018-08-22T04:19:23.909Z,1.40
2018-08-22T04:21:52.318Z,1.70
2018-08-22T04:24:20.759Z,1.50
2018-08-22T04:26:49.136Z,1.20
2018-08-22T04:29:17.507Z,1.30
2018-08-22T04:31:45.897Z,1.63
2018-08-22T04:34:14.277Z,1.80
2018-08-22T04:36:43.697Z,1.30
2018-08-22T04:39:12.071Z,1.33
2018-08-22T04:41:40.648Z,1.70
2018-08-22T04:44:09.008Z,1.40
2018-08-22T04:46:37.341Z,1.63
2018-08-22T04:49:05.787Z,1.40
2018-08-22T04:51:34.191Z,1.50
2018-08-22T04:54:02.575Z,1.50
2018-08-22T04:56:30.970Z,1.27
2018-08-22T04:58:59.290Z,1.60
2018-08-22T05:01:27.694Z,1.17
2018-08-22T05:03:56.055Z,1.60
2018-08-22T05:06:24.404Z,1.67
2018-08-22T05:08:52.761Z,1.30
2018-08-22T05:11:21.095Z,1.40
2018-08-22T05:13:49.507Z,1.30
2018-08-22T05:16:17.820Z,1.50
2018-08-22T05:18:46.279Z,1.63
2018-08-22T05:21:14.734Z,1.47
2018-08-22T05:23:43.123Z,1.60
2018-08-22T05:26:11.490Z,1.43
2018-08-22T05:28:39.901Z,1.47
2018-08-22T05:31:08.303Z,2.03
2018-08-22T05:33:36.684Z,1.80
2018-08-22T05:36:05.055Z,1.40
2018-08-22T05:38:33.491Z,1.50
2018-08-22T05:41:01.852Z,1.30
2018-08-22T05:43:30.247Z,1.53
2018-08-22T05:45:58.918Z,1.30
2018-08-22T05:48:27.256Z,1.43
2018-08-22T05:50:55.675Z,1.30
2018-08-22T05:53:24.024Z,1.50
2018-08-22T05:55:52.441Z,1.50
2018-08-22T05:58:20.868Z,1.37
2018-08-22T06:00:49.240Z,1.30
2018-08-22T06:03:17.647Z,1.37
2018-08-22T06:05:46.122Z,1.80
2018-08-22T06:08:14.515Z,1.40
2018-08-22T06:10:42.882Z,1.40
2018-08-22T06:13:11.279Z,1.40
2018-08-22T06:15:39.712Z,1.23
2018-08-22T06:18:08.091Z,1.37
2018-08-22T06:20:36.472Z,1.37
2018-08-22T06:23:04.831Z,1.40
2018-08-22T06:25:33.239Z,1.23
2018-08-22T06:28:01.565Z,1.47
2018-08-22T06:30:29.996Z,1.50
2018-08-22T06:32:58.407Z,1.33
2018-08-22T06:35:26.763Z,1.47
2018-08-22T06:37:55.233Z,1.20
2018-08-22T06:40:23.568Z,1.30
2018-08-22T06:42:51.881Z,1.40
2018-08-22T06:45:20.840Z,1.50
2018-08-22T06:47:49.259Z,1.20
2018-08-22T06:50:17.725Z,1.40
2018-08-22T06:52:46.116Z,1.23
2018-08-22T06:55:14.512Z,1.30
2018-08-22T06:57:42.893Z,1.33
2018-08-22T07:00:11.197Z,1.50
2018-08-22T07:02:39.539Z,1.50
2018-08-22T07:05:07.886Z,1.30
2018-08-22T07:07:36.208Z,1.53
2018-08-22T07:10:04.887Z,1.40
2018-08-22T07:12:33.287Z,1.83
2018-08-22T07:15:01.628Z,1.43
2018-08-22T07:17:30.027Z,1.30
2018-08-22T07:19:58.320Z,1.53
2018-08-22T07:22:26.742Z,1.53
2018-08-22T07:24:55.058Z,1.27
2018-08-22T07:27:23.420Z,1.20
2018-08-22T07:29:51.796Z,1.20
2018-08-22T07:32:20.173Z,1.37
2018-08-22T07:34:48.532Z,1.40
2018-08-22T07:37:16.902Z,1.20
2018-08-22T07:39:45.226Z,1.30
2018-08-22T07:42:13.594Z,1.07
2018-08-22T07:44:41.969Z,1.20
2018-08-22T07:47:10.410Z,1.90
2018-08-22T07:49:38.712Z,1.17
2018-08-22T07:52:07.142Z,1.30
2018-08-22T07:54:50.026Z,0.95
2018-08-22T07:57:21.470Z,1.15
2018-08-22T07:59:50.181Z,1.67
2018-08-22T08:02:18.614Z,1.57
2018-08-22T08:04:47.221Z,1.40
2018-08-22T08:07:15.910Z,1.37
2018-08-22T08:09:44.395Z,1.35
2018-08-22T08:12:13.027Z,1.35
2018-08-22T08:14:41.495Z,1.12
2018-08-22T08:17:09.999Z,1.50
2018-08-22T08:19:38.449Z,1.50
2018-08-22T08:22:06.876Z,1.30
2018-08-22T08:24:35.312Z,1.52
2018-08-22T08:27:03.717Z,1.15
2018-08-22T08:29:32.042Z,1.20
2018-08-22T08:32:00.454Z,1.32
2018-08-22T08:34:28.859Z,1.52
2018-08-22T08:36:57.261Z,1.50
2018-08-22T08:39:25.596Z,1.52
2018-08-22T08:41:53.953Z,1.30
2018-08-22T08:44:22.338Z,1.27
2018-08-22T08:46:50.719Z,1.65
2018-08-22T08:49:19.134Z,1.00
2018-08-22T08:51:59.891Z,1.20
2018-08-22T08:54:28.409Z,1.45
2018-08-22T08:56:56.981Z,1.42
2018-08-22T08:59:25.304Z,1.20
2018-08-22T09:01:53.668Z,1.30
2018-08-22T09:04:22.036Z,1.22
2018-08-22T09:06:51.052Z,1.40
2018-08-22T09:09:19.427Z,1.20
2018-08-22T09:11:53.190Z,1.00
2018-08-22T09:14:21.614Z,0.95
2018-08-22T09:16:49.994Z,1.32
2018-08-22T09:19:18.339Z,1.42
2018-08-22T09:21:46.707Z,1.45
2018-08-22T09:24:15.111Z,1.37
2018-08-22T09:26:43.539Z,1.07
2018-08-22T09:29:11.942Z,1.20
2018-08-22T09:31:40.302Z,1.05
2018-08-22T09:34:08.843Z,1.15
2018-08-22T09:36:37.189Z,1.30
2018-08-22T09:39:08.585Z,1.50
2018-08-22T09:41:36.926Z,1.10
2018-08-22T09:44:06.017Z,0.82
2018-08-22T09:46:34.406Z,1.10
2018-08-22T09:49:02.783Z,1.10
2018-08-22T09:51:31.183Z,0.80
2018-08-22T09:53:59.602Z,0.82
2018-08-22T09:56:27.974Z,1.10
2018-08-22T09:58:56.302Z,1.00
2018-08-22T10:01:30.023Z,1.20
2018-08-22T10:03:59.856Z,1.00
2018-08-22T10:06:35.878Z,1.00
2018-08-22T10:09:07.111Z,1.05
2018-08-22T10:11:35.440Z,1.00
2018-08-22T10:14:03.879Z,1.35
2018-08-22T10:16:32.225Z,1.10
2018-08-22T10:19:00.645Z,0.80
2018-08-22T10:21:29.001Z,0.93
2018-08-22T10:23:57.385Z,1.00
2018-08-22T10:26:25.929Z,0.95
2018-08-22T10:28:54.709Z,1.05
2018-08-22T10:31:23.869Z,1.20
2018-08-22T10:33:52.274Z,1.00
2018-08-22T10:36:20.786Z,1.05
2018-08-22T10:38:49.166Z,1.12
2018-08-22T10:41:17.533Z,1.00
2018-08-22T10:43:45.883Z,0.90
2018-08-22T10:46:14.242Z,0.65
2018-08-22T10:48:42.605Z,1.10
2018-08-22T10:51:10.976Z,1.30
2018-08-22T10:53:39.324Z,0.68
2018-08-22T10:56:07.734Z,1.00
2018-08-22T10:58:36.105Z,1.15
2018-08-22T11:01:04.512Z,0.90
2018-08-22T11:03:32.934Z,1.05
2018-08-22T11:06:01.375Z,1.05
2018-08-22T11:08:29.771Z,1.17
2018-08-22T11:10:58.210Z,1.02
2018-08-22T11:13:26.615Z,0.75
2018-08-22T11:15:55.010Z,0.85
2018-08-22T11:18:23.280Z,0.90
2018-08-22T11:20:51.676Z,1.25
2018-08-22T11:23:32.030Z,0.95
2018-08-22T11:26:12.321Z,0.80
2018-08-22T11:28:51.768Z,1.00
2018-08-22T11:31:31.444Z,1.05
2018-08-22T11:34:10.916Z,1.10
2018-08-22T11:36:38.123Z,0.95
2018-08-22T11:39:07.803Z,0.98
2018-08-22T11:41:36.240Z,1.10
2018-08-22T11:44:04.604Z,0.90
2018-08-22T11:46:32.988Z,1.00
2018-08-22T11:49:01.319Z,1.22
2018-08-22T11:51:29.752Z,1.00
2018-08-22T11:53:58.159Z,0.90
2018-08-22T11:56:26.508Z,1.30
2018-08-22T11:58:54.950Z,1.15
2018-08-22T12:01:23.388Z,1.30
2018-08-22T12:03:51.751Z,1.15
2018-08-22T12:06:20.309Z,0.90
2018-08-22T12:08:48.703Z,0.88
2018-08-22T12:11:17.150Z,1.30
2018-08-22T12:13:45.482Z,0.95
2018-08-22T12:16:14.015Z,1.20
2018-08-22T12:18:42.299Z,1.60
2018-08-22T12:21:10.698Z,1.32
2018-08-22T12:23:39.184Z,1.27
2018-08-22T12:26:07.583Z,1.30
2018-08-22T12:28:35.957Z,1.30
2018-08-22T12:31:04.366Z,1.42
2018-08-22T12:33:32.698Z,1.27
2018-08-22T12:36:01.071Z,1.30
2018-08-22T12:38:29.384Z,1.42
2018-08-22T12:40:57.724Z,2.00
2018-08-22T12:43:26.110Z,1.32
2018-08-22T12:45:54.622Z,1.60
2018-08-22T12:48:23.166Z,1.60
2018-08-22T12:50:51.496Z,1.35
2018-08-22T12:53:19.853Z,1.60
2018-08-22T12:55:48.404Z,1.50
2018-08-22T12:58:16.801Z,1.75
2018-08-22T13:00:45.166Z,1.65
2018-08-22T13:03:13.566Z,1.70
2018-08-22T13:05:42.258Z,1.50
2018-08-22T13:08:11.040Z,1.57
2018-08-22T13:10:39.497Z,1.35
2018-08-22T13:13:07.851Z,1.52
2018-08-22T13:15:36.250Z,1.60
2018-08-22T13:18:04.670Z,2.00
2018-08-22T13:20:33.060Z,1.95
2018-08-22T13:23:01.485Z,2.30
2018-08-22T13:25:29.876Z,2.65
2018-08-22T13:27:58.249Z,2.20
2018-08-22T13:30:26.653Z,2.65
2018-08-22T13:32:54.903Z,2.72
2018-08-22T13:35:23.270Z,2.70
2018-08-22T13:37:51.612Z,2.92
2018-08-22T13:40:19.989Z,2.33
2018-08-22T13:42:48.403Z,2.60
2018-08-22T13:45:16.782Z,2.37
2018-08-22T13:47:45.181Z,2.60
2018-08-22T13:50:13.640Z,2.72
2018-08-22T13:52:42.029Z,2.55
2018-08-22T13:55:11.501Z,2.20
2018-08-22T13:57:39.989Z,2.33
2018-08-22T14:00:08.777Z,2.40
2018-08-22T14:02:37.116Z,2.42
2018-08-22T14:05:06.158Z,2.12
2018-08-22T14:07:34.779Z,2.40
2018-08-22T14:10:03.297Z,2.22
2018-08-22T14:12:32.201Z,2.17
2018-08-22T14:15:00.865Z,2.27
2018-08-22T14:17:29.475Z,2.05
2018-08-22T14:19:57.923Z,2.35
2018-08-22T14:22:26.417Z,2.45
2018-08-22T14:24:54.719Z,2.80
2018-08-22T14:27:23.069Z,2.95
2018-08-22T14:29:51.435Z,2.20
2018-08-22T14:32:19.774Z,2.30
2018-08-22T14:34:48.125Z,2.60
2018-08-22T14:37:16.517Z,2.05
2018-08-22T14:39:44.913Z,2.58
2018-08-22T14:42:14.123Z,2.15
2018-08-22T14:44:42.487Z,2.20
2018-08-22T14:47:10.923Z,2.42
2018-08-22T14:49:39.299Z,2.47
2018-08-22T14:52:07.649Z,2.30
2018-08-22T14:54:35.981Z,2.08
2018-08-22T14:57:04.359Z,2.40
2018-08-22T14:59:32.756Z,2.25
2018-08-22T15:02:01.148Z,2.22
2018-08-22T15:04:29.562Z,2.12
2018-08-22T15:06:57.913Z,2.20
2018-08-22T15:09:26.259Z,2.05
2018-08-22T15:11:54.564Z,2.08
2018-08-22T15:14:22.923Z,1.92
2018-08-22T15:16:51.327Z,1.82
2018-08-22T15:19:19.835Z,2.40
2018-08-22T15:21:48.208Z,2.20
2018-08-22T15:24:16.742Z,2.40
2018-08-22T15:26:45.262Z,2.15
2018-08-22T15:29:13.519Z,2.17
2018-08-22T15:31:41.840Z,2.72
2018-08-22T15:34:10.229Z,2.02
2018-08-22T15:36:38.695Z,2.02
2018-08-22T15:39:08.836Z,2.30
2018-08-22T15:41:37.230Z,2.10
2018-08-22T15:44:05.901Z,2.12
2018-08-22T15:46:34.212Z,2.47
2018-08-22T15:49:02.893Z,2.40
2018-08-22T15:51:31.296Z,2.42
2018-08-22T15:54:10.049Z,1.80
2018-08-22T15:56:40.024Z,2.50
2018-08-22T15:59:09.177Z,2.35
2018-08-22T16:01:37.580Z,2.55
2018-08-22T16:04:06.075Z,2.72
2018-08-22T16:06:34.467Z,2.65
2018-08-22T16:09:02.919Z,2.40
2018-08-22T16:11:31.296Z,2.60
2018-08-22T16:13:59.731Z,2.37
2018-08-22T16:16:28.066Z,2.52
2018-08-22T16:18:56.384Z,2.30
2018-08-22T16:21:24.717Z,3.00
2018-08-22T16:23:54.103Z,2.17
2018-08-22T16:26:22.735Z,2.47
2018-08-22T16:28:55.067Z,2.45
2018-08-22T16:31:27.926Z,2.10
2018-08-22T16:33:56.293Z,2.17
2018-08-22T16:36:30.849Z,2.05
2018-08-22T16:39:00.157Z,2.00
2018-08-22T16:41:28.508Z,2.40
2018-08-22T16:43:56.887Z,1.70
2018-08-22T16:46:25.447Z,1.95
2018-08-22T16:48:55.045Z,2.08
2018-08-22T16:51:23.936Z,1.72
2018-08-22T16:54:11.582Z,1.77
2018-08-22T16:56:40.096Z,1.70
2018-08-22T16:59:09.553Z,1.52
2018-08-22T17:01:39.338Z,1.80
2018-08-22T17:04:07.843Z,1.98
2018-08-22T17:06:36.337Z,1.50
2018-08-22T17:09:06.765Z,1.80
2018-08-22T17:11:35.128Z,1.90
2018-08-22T17:14:03.462Z,2.02
2018-08-22T17:16:31.842Z,1.85
2018-08-22T17:19:00.243Z,1.95
2018-08-22T17:21:29.138Z,1.75
2018-08-22T17:23:57.993Z,1.60
2018-08-22T17:26:26.391Z,1.87
2018-08-22T17:28:57.562Z,1.87
2018-08-22T17:31:27.285Z,2.15
2018-08-22T17:34:02.840Z,2.00
2018-08-22T17:36:31.513Z,1.90
2018-08-22T17:39:01.109Z,1.90
2018-08-22T17:41:30.162Z,1.80
2018-08-22T17:44:14.461Z,2.02
2018-08-22T17:46:50.288Z,1.95
2018-08-22T17:49:18.688Z,2.25
2018-08-22T17:52:06.610Z,2.10
2018-08-22T17:54:35.012Z,1.98
2018-08-22T17:57:13.735Z,2.00
2018-08-22T17:59:42.901Z,2.10
2018-08-22T18:02:11.270Z,1.67
2018-08-22T18:04:51.898Z,2.27
2018-08-22T18:07:20.237Z,2.20
2018-08-22T18:09:49.593Z,2.05
2018-08-22T18:12:19.400Z,1.82
2018-08-22T18:14:48.055Z,2.00
2018-08-22T18:17:19.030Z,2.05
2018-08-22T18:19:47.664Z,2.37
2018-08-22T18:22:16.090Z,2.20
2018-08-22T18:24:50.151Z,2.20
2018-08-22T18:27:18.486Z,2.22
2018-08-22T18:29:47.177Z,2.45
2018-08-22T18:32:16.110Z,2.20
2018-08-22T18:35:01.065Z,2.77
2018-08-22T18:37:30.461Z,2.15
2018-08-22T18:40:24.907Z,2.80
2018-08-22T18:42:55.486Z,2.45
2018-08-22T18:45:24.587Z,2.20
2018-08-22T18:47:53.025Z,2.22
2018-08-22T18:50:21.623Z,2.30
2018-08-22T18:52:52.449Z,2.08
2018-08-22T18:55:24.588Z,2.02
2018-08-22T18:57:53.302Z,2.12
2018-08-22T19:00:21.711Z,2.83
2018-08-22T19:02:51.432Z,2.72
2018-08-22T19:05:23.780Z,2.37
2018-08-22T19:08:01.028Z,2.20
2018-08-22T19:10:30.790Z,2.30
2018-08-22T19:13:04.486Z,2.30
2018-08-22T19:15:33.124Z,2.40
2018-08-22T19:18:01.579Z,2.50
2018-08-22T19:20:30.179Z,2.22
2018-08-22T19:22:58.526Z,2.62
2018-08-22T19:25:27.095Z,2.30
2018-08-22T19:27:55.400Z,2.22
2018-08-22T19:30:23.768Z,2.58
2018-08-22T19:32:52.248Z,2.22
2018-08-22T19:35:20.776Z,2.50
2018-08-22T19:37:54.809Z,2.22
2018-08-22T19:40:25.589Z,2.02
2018-08-22T19:42:55.402Z,2.42
2018-08-22T19:45:30.161Z,2.10
2018-08-22T19:47:59.063Z,2.10
2018-08-22T19:50:30.488Z,1.92
2018-08-22T19:53:00.966Z,2.12
2018-08-22T19:55:29.838Z,2.10
2018-08-22T19:58:00.727Z,2.17
2018-08-22T20:00:29.194Z,1.82
2018-08-22T20:02:59.469Z,2.10
2018-08-22T20:05:40.135Z,2.20
2018-08-22T20:08:08.689Z,2.20
2018-08-22T20:10:37.239Z,1.63
2018-08-22T20:13:05.994Z,2.10
2018-08-22T20:15:34.466Z,1.97
2018-08-22T20:18:03.062Z,1.80
2018-08-22T20:20:32.117Z,1.80
2018-08-22T20:23:01.037Z,1.90
2018-08-22T20:25:30.818Z,2.03
2018-08-22T20:28:01.158Z,1.67
2018-08-22T20:30:29.553Z,1.60
2018-08-22T20:33:03.276Z,1.50
2018-08-22T20:35:37.508Z,1.63
2018-08-22T20:38:08.843Z,2.10
2018-08-22T20:40:38.662Z,2.10
2018-08-22T20:43:14.333Z,2.17
2018-08-22T20:45:45.363Z,1.67
2018-08-22T20:48:14.757Z,2.10
2018-08-22T20:50:45.469Z,1.73
2018-08-22T20:53:17.941Z,1.70
2018-08-22T20:55:47.522Z,1.70
2018-08-22T20:58:21.786Z,1.63
2018-08-22T21:00:51.102Z,1.70
2018-08-22T21:03:19.464Z,2.00
2018-08-22T21:05:47.844Z,1.50
2018-08-22T21:08:16.451Z,1.70
2018-08-22T21:10:44.783Z,1.57
2018-08-22T21:13:18.492Z,1.97
2018-08-22T21:15:47.220Z,1.50
2018-08-22T21:18:15.567Z,1.73
2018-08-22T21:20:43.925Z,1.80
2018-08-22T21:23:12.309Z,1.70
2018-08-22T21:25:40.768Z,1.80
2018-08-22T21:28:09.139Z,1.80
2018-08-22T21:30:42.678Z,1.90
2018-08-22T21:33:11.079Z,1.73
2018-08-22T21:35:39.783Z,1.70
2018-08-22T21:40:56.474Z,1.57
2018-08-22T21:43:24.910Z,1.67
2018-08-22T21:45:53.288Z,1.60
2018-08-22T21:48:25.083Z,1.80
2018-08-22T21:50:53.499Z,1.77
2018-08-22T21:53:22.122Z,1.70
2018-08-22T21:55:52.007Z,1.70
2018-08-22T21:58:20.384Z,1.63
2018-08-22T22:00:48.826Z,1.60
2018-08-22T22:03:22.427Z,1.60
2018-08-22T22:05:57.976Z,1.70
2018-08-22T22:08:26.450Z,1.40
2018-08-22T22:10:58.563Z,1.60
2018-08-22T22:13:27.020Z,1.83
2018-08-22T22:15:58.116Z,1.60
2018-08-22T22:18:27.660Z,2.03
2018-08-22T22:21:07.732Z,2.00
2018-08-22T22:23:44.769Z,1.93
2018-08-22T22:26:13.655Z,1.77
2018-08-22T22:28:42.241Z,1.80
2018-08-22T22:31:12.455Z,1.77
2018-08-22T22:33:57.846Z,1.80
2018-08-22T22:36:26.299Z,2.10
2018-08-22T22:38:54.631Z,1.60
2018-08-22T22:41:25.830Z,2.13
2018-08-22T22:43:54.203Z,1.90
2018-08-22T22:46:22.583Z,1.80
2018-08-22T22:48:50.973Z,1.53
2018-08-22T22:51:19.398Z,1.60
2018-08-22T22:53:47.812Z,1.80
2018-08-22T22:56:16.238Z,1.67
2018-08-22T22:58:44.623Z,2.27
2018-08-22T23:01:13.078Z,1.50
2018-08-22T23:03:41.662Z,1.80
2018-08-22T23:06:10.004Z,1.73
2018-08-22T23:08:38.420Z,1.70
2018-08-22T23:11:06.793Z,1.80
2018-08-22T23:13:35.216Z,1.60
2018-08-22T23:16:03.579Z,1.53
2018-08-22T23:18:31.988Z,1.40
2018-08-22T23:21:00.363Z,1.70
2018-08-22T23:23:33.385Z,1.90
2018-08-22T23:26:22.216Z,1.73
2018-08-22T23:28:50.582Z,1.77
2018-08-22T23:31:20.164Z,1.80
2018-08-22T23:33:48.574Z,1.70
2018-08-22T23:36:17.007Z,1.90
2018-08-22T23:38:45.685Z,1.43
2018-08-22T23:41:14.058Z,1.70
2018-08-22T23:43:50.543Z,1.90
2018-08-22T23:46:19.166Z,1.60
2018-08-22T23:48:54.236Z,2.03
2018-08-22T23:51:22.622Z,1.80
2018-08-22T23:53:50.971Z,2.30
2018-08-22T23:56:26.809Z,2.00
2018-08-22T23:58:55.753Z,1.50
